createdAt,value
2022-08-22T02:27:04.016Z,1017.48
2022-08-22T03:20:43.112Z,1017.39
2022-08-22T03:30:48.949Z,1017.30
2022-08-22T03:40:56.420Z,1017.36
2022-08-22T03:51:02.637Z,1017.37
2022-08-22T04:01:09.369Z,1017.42
2022-08-22T04:11:15.829Z,1017.57
2022-08-22T04:21:22.634Z,1017.54
2022-08-22T04:31:29.356Z,1017.71
2022-08-22T04:41:36.243Z,1017.77
2022-08-22T04:51:43.427Z,1017.84
2022-08-22T05:01:50.010Z,1017.91
2022-08-22T05:11:57.124Z,1017.99
2022-08-22T05:22:04.068Z,1018.03
2022-08-22T06:22:28.814Z,1018.29
2022-08-22T06:32:58.491Z,1018.30
2022-08-22T06:42:48.633Z,1018.32
2022-08-22T06:52:56.048Z,1018.32
2022-08-22T07:03:02.812Z,1018.41
2022-08-22T07:13:09.441Z,1018.41
2022-08-22T07:23:17.385Z,1018.46
2022-08-22T07:33:27.101Z,1018.58
2022-08-22T07:43:36.159Z,1018.54
2022-08-22T07:53:44.676Z,1018.51
2022-08-22T08:03:53.283Z,1018.51
2022-08-22T08:14:01.428Z,1018.53
2022-08-22T08:24:09.107Z,1018.52
2022-08-22T08:42:14.384Z,1018.50
2022-08-22T08:55:00.015Z,1018.49
2022-08-22T09:05:07.817Z,1018.43
2022-08-22T09:15:16.106Z,1018.45
2022-08-22T09:25:24.111Z,1018.53
2022-08-22T09:35:32.133Z,1018.56
2022-08-22T09:45:40.266Z,1018.59
2022-08-22T09:57:10.139Z,1018.56
2022-08-22T10:07:21.153Z,1018.63
2022-08-22T10:29:29.363Z,1018.56
2022-08-22T10:39:35.888Z,1018.55
2022-08-22T12:14:30.370Z,1018.33
2022-08-22T12:28:35.605Z,1018.26
2022-08-22T12:38:41.995Z,1018.14
2022-08-22T12:48:49.988Z,1018.05
2022-08-22T12:58:56.551Z,1017.97
2022-08-22T13:09:03.414Z,1017.95
2022-08-22T13:19:15.942Z,1017.89
2022-08-22T13:29:26.789Z,1017.90
2022-08-22T13:40:55.050Z,1018.01
2022-08-22T13:52:29.266Z,1018.00
2022-08-22T14:10:30.437Z,1017.96
2022-08-22T14:20:37.393Z,1017.87
2022-08-22T15:42:21.094Z,1017.84
2022-08-22T15:55:06.278Z,1017.81
2022-08-22T16:06:32.225Z,1017.75
2022-08-22T16:17:58.762Z,1017.82
2022-08-22T16:32:05.355Z,1017.87
2022-08-22T16:43:31.213Z,1017.85
2022-08-22T17:42:42.611Z,1018.07
2022-08-22T17:52:50.618Z,1018.28
2022-08-22T18:20:11.462Z,1018.60
2022-08-22T18:50:09.434Z,1018.75
2022-08-22T20:35:34.850Z,1018.89
2022-08-22T20:45:41.113Z,1018.91
2022-08-22T20:55:48.976Z,1018.91
2022-08-22T21:05:56.768Z,1018.95
2022-08-22T21:16:05.092Z,1019.00
2022-08-22T21:26:12.779Z,1018.97
2022-08-22T21:36:20.004Z,1018.90
2022-08-22T21:46:27.163Z,1019.01
2022-08-22T21:56:34.589Z,1019.15
2022-08-22T22:06:42.393Z,1019.12
2022-08-22T22:16:49.431Z,1019.01
2022-08-22T22:26:57.294Z,1019.11
2022-08-22T22:37:04.099Z,1019.18
2022-08-22T22:47:11.069Z,1019.14
2022-08-22T22:57:25.355Z,1019.03
2022-08-22T23:07:30.353Z,1018.97
2022-08-22T23:17:40.888Z,1018.90
2022-08-22T23:27:48.718Z,1018.86
2022-08-22T23:37:59.504Z,1018.84
2022-08-22T23:48:06.689Z,1018.85
2022-08-22T23:58:13.665Z,1018.75
